Time;durP1;ratioP1;P1;durP2;ratioP2;P2;SDS_P1;SDS_P2;PMS_P1;PMS_P2;Temp;Humidity;BMP_temperature;BMP_pressure;BME280_temperature;BME280_humidity;BME280_pressure;Samples;Min_cycle;Max_cycle;Signal;HPM_P1;HPM_P2
2023/12/01 00:02:03;;;;;;;33.88;15.93;;;-0.30;99.90;;;;;;4992303;28;20390;-51
2023/12/01 00:04:29;;;;;;;34.63;16.55;;;-0.40;99.90;;;;;;4997781;28;20078;-48
2023/12/01 00:06:54;;;;;;;37.45;17.60;;;-0.40;99.90;;;;;;4997826;28;20125;-48
2023/12/01 00:09:20;;;;;;;38.95;18.35;;;-0.40;99.90;;;;;;4974682;28;20049;-51
2023/12/01 00:11:46;;;;;;;37.60;16.95;;;-0.40;99.90;;;;;;4995278;28;20050;-48
2023/12/01 00:14:12;;;;;;;33.08;16.80;;;-0.40;99.90;;;;;;4990563;28;20058;-50
2023/12/01 00:16:37;;;;;;;36.97;16.60;;;-0.30;99.90;;;;;;4984248;28;20053;-49
2023/12/01 00:19:03;;;;;;;34.80;17.05;;;-0.40;99.90;;;;;;4991348;28;20137;-53
2023/12/01 00:21:29;;;;;;;41.08;17.95;;;-0.40;99.90;;;;;;4990084;28;20135;-50
2023/12/01 00:23:54;;;;;;;36.63;17.88;;;-0.40;99.90;;;;;;4988379;28;20054;-50
2023/12/01 00:26:20;;;;;;;40.40;18.25;;;-0.40;99.90;;;;;;4988917;28;20133;-48
2023/12/01 00:28:46;;;;;;;36.63;17.75;;;-0.40;99.90;;;;;;4983957;28;20050;-48
2023/12/01 00:31:12;;;;;;;36.28;17.17;;;-0.40;99.90;;;;;;4992911;28;20050;-52
2023/12/01 00:33:38;;;;;;;42.40;18.75;;;-0.50;99.90;;;;;;4988552;28;20046;-51
2023/12/01 00:36:04;;;;;;;36.78;18.13;;;-0.40;99.90;;;;;;4970894;28;20052;-53
2023/12/01 00:38:29;;;;;;;39.28;19.17;;;-0.40;99.90;;;;;;4988046;28;20053;-50
2023/12/01 00:40:55;;;;;;;36.13;18.73;;;-0.40;99.90;;;;;;4986833;28;20046;-51
2023/12/01 00:43:21;;;;;;;37.70;18.33;;;-0.40;99.90;;;;;;4970276;28;20124;-52
2023/12/01 00:45:46;;;;;;;37.33;18.40;;;-0.40;99.90;;;;;;4989369;28;20041;-52
2023/12/01 00:48:12;;;;;;;34.97;18.33;;;-0.40;99.90;;;;;;4970567;28;20046;-48
2023/12/01 00:50:42;;;;;;;32.85;17.52;;;-0.40;99.90;;;;;;4979347;28;20034;-48
2023/12/01 00:53:08;;;;;;;36.03;18.48;;;-0.40;99.90;;;;;;4995380;28;20049;-47
2023/12/01 00:55:35;;;;;;;35.90;18.48;;;-0.50;99.90;;;;;;4991215;28;20573;-48
2023/12/01 00:58:01;;;;;;;34.65;18.52;;;-0.40;99.90;;;;;;4993668;28;20045;-48
2023/12/01 01:00:27;;;;;;;34.20;17.83;;;-0.50;99.90;;;;;;4978561;28;20549;-51
2023/12/01 01:02:52;;;;;;;32.15;16.58;;;-0.50;99.90;;;;;;4973333;28;20061;-50
2023/12/01 01:05:18;;;;;;;31.85;16.30;;;-0.50;99.90;;;;;;4983800;28;20041;-49
2023/12/01 01:07:44;;;;;;;32.65;17.17;;;-0.50;99.90;;;;;;4988613;28;20040;-48
2023/12/01 01:10:10;;;;;;;32.90;16.30;;;-0.50;99.90;;;;;;4988460;28;20461;-52
2023/12/01 01:12:36;;;;;;;36.20;17.33;;;-0.60;99.90;;;;;;4992234;28;20542;-52
2023/12/01 01:15:03;;;;;;;30.35;16.40;;;-0.60;99.90;;;;;;4989614;28;20065;-53
2023/12/01 01:17:32;;;;;;;33.95;16.25;;;-0.60;99.90;;;;;;4987989;28;20073;-49
2023/12/01 01:19:58;;;;;;;36.08;17.83;;;-0.70;99.90;;;;;;4974003;28;20160;-52
2023/12/01 01:22:25;;;;;;;38.80;17.45;;;-0.60;99.90;;;;;;4980454;28;20046;-52
2023/12/01 01:24:51;;;;;;;34.55;16.83;;;-0.70;99.90;;;;;;4968551;28;20120;-48
2023/12/01 01:27:17;;;;;;;43.08;18.58;;;-0.70;99.90;;;;;;4987891;28;20049;-52
2023/12/01 01:29:43;;;;;;;37.15;17.90;;;-0.70;99.90;;;;;;4987077;28;20037;-52
2023/12/01 01:32:10;;;;;;;37.58;17.00;;;-0.70;99.90;;;;;;4985264;28;20052;-49
2023/12/01 01:34:35;;;;;;;37.47;17.67;;;-0.80;99.90;;;;;;4969262;28;20058;-52
2023/12/01 01:37:01;;;;;;;42.55;18.75;;;-0.80;99.90;;;;;;4985550;28;20107;-51
2023/12/01 01:39:27;;;;;;;42.33;19.27;;;-0.90;99.90;;;;;;4985016;28;20049;-49
2023/12/01 01:41:55;;;;;;;44.22;19.30;;;-0.90;99.90;;;;;;4987240;28;20528;-47
2023/12/01 01:44:20;;;;;;;45.15;19.65;;;-1.00;99.90;;;;;;4973267;28;20077;-48
2023/12/01 01:46:46;;;;;;;46.95;20.20;;;-1.00;99.90;;;;;;4982595;28;20049;-51
2023/12/01 01:49:12;;;;;;;46.00;19.27;;;-1.00;99.90;;;;;;4992114;28;20478;-52
2023/12/01 01:51:39;;;;;;;49.60;20.25;;;-1.00;99.90;;;;;;4995436;28;20457;-52
2023/12/01 01:54:05;;;;;;;49.88;20.05;;;-1.00;99.90;;;;;;4992713;28;20046;-53
2023/12/01 01:56:32;;;;;;;50.00;20.42;;;-1.10;99.90;;;;;;4975293;28;20061;-52
2023/12/01 01:58:58;;;;;;;49.78;21.25;;;-1.10;99.90;;;;;;4990658;28;21005;-50
2023/12/01 02:01:27;;;;;;;46.53;20.40;;;-1.10;99.90;;;;;;4987641;28;20085;-54
2023/12/01 02:03:54;;;;;;;51.22;20.60;;;-1.00;99.90;;;;;;4992544;28;20490;-51
2023/12/01 02:06:20;;;;;;;49.60;21.02;;;-1.10;99.90;;;;;;4971037;28;20554;-51
2023/12/01 02:08:46;;;;;;;51.15;21.02;;;-1.10;99.90;;;;;;4973406;28;20042;-50
2023/12/01 02:11:15;;;;;;;50.00;20.85;;;-1.10;99.90;;;;;;4986950;28;20512;-48
2023/12/01 02:13:41;;;;;;;50.85;19.80;;;-1.10;99.90;;;;;;4964766;28;20581;-48
2023/12/01 02:16:08;;;;;;;55.05;20.90;;;-1.10;99.90;;;;;;4987209;28;20088;-47
2023/12/01 02:18:34;;;;;;;50.25;21.75;;;-1.10;99.90;;;;;;4987249;28;20042;-52
2023/12/01 02:21:00;;;;;;;52.20;21.67;;;-1.10;99.90;;;;;;4989975;28;20104;-47
2023/12/01 02:23:27;;;;;;;50.83;20.40;;;-1.20;99.90;;;;;;4992810;28;20136;-48
2023/12/01 02:25:53;;;;;;;55.65;22.45;;;-1.20;99.90;;;;;;4986536;28;20058;-50
2023/12/01 02:28:20;;;;;;;55.83;21.13;;;-1.10;99.90;;;;;;4994443;28;20042;-49
2023/12/01 02:30:54;;;;;;;50.85;22.27;;;-1.10;99.90;;;;;;4988601;28;20051;-46
2023/12/01 02:33:21;;;;;;;56.30;21.63;;;-1.10;99.90;;;;;;4987380;28;20081;-49
2023/12/01 02:35:47;;;;;;;56.08;22.30;;;-1.10;99.90;;;;;;4985267;28;20042;-48
2023/12/01 02:38:13;;;;;;;56.17;21.23;;;-1.10;99.90;;;;;;4989751;28;20455;-52
2023/12/01 02:40:51;;;;;;;55.00;20.95;;;-1.10;99.90;;;;;;4988537;28;20115;-51
2023/12/01 02:43:19;;;;;;;46.92;19.80;;;-1.10;99.90;;;;;;4989422;28;20108;-51
2023/12/01 02:45:45;;;;;;;51.28;20.52;;;-1.10;99.90;;;;;;4990847;28;20113;-52
2023/12/01 02:48:11;;;;;;;49.53;20.40;;;-1.10;99.90;;;;;;4985548;28;20096;-49
2023/12/01 02:50:37;;;;;;;51.58;20.30;;;-1.20;99.90;;;;;;4986552;28;20684;-52
2023/12/01 02:53:04;;;;;;;48.85;20.50;;;-1.20;99.90;;;;;;4988944;28;20046;-52
2023/12/01 02:55:30;;;;;;;49.13;20.77;;;-1.20;99.90;;;;;;4986002;28;20154;-49
2023/12/01 02:57:56;;;;;;;48.60;20.50;;;-1.20;99.90;;;;;;4990076;28;20041;-48
2023/12/01 03:00:23;;;;;;;54.08;20.90;;;-1.30;99.90;;;;;;4987776;28;20042;-49
2023/12/01 03:02:52;;;;;;;48.60;20.40;;;-1.40;99.90;;;;;;4994973;28;20130;-48
2023/12/01 03:05:19;;;;;;;49.13;20.83;;;-1.40;99.90;;;;;;4972596;28;20069;-49
2023/12/01 03:07:45;;;;;;;49.65;20.38;;;-1.50;99.90;;;;;;4991071;28;20379;-48
2023/12/01 03:10:12;;;;;;;50.60;20.75;;;-1.50;99.90;;;;;;4977082;28;20077;-51
2023/12/01 03:12:40;;;;;;;50.97;21.38;;;-1.50;99.90;;;;;;4996851;28;20046;-52
2023/12/01 03:15:09;;;;;;;50.00;20.17;;;-1.60;99.90;;;;;;4989180;28;20045;-48
2023/12/01 03:17:36;;;;;;;46.60;20.20;;;-1.60;99.90;;;;;;4993694;28;20576;-49
2023/12/01 03:20:08;;;;;;;49.65;20.00;;;-1.60;99.90;;;;;;4995007;28;20046;-51
2023/12/01 03:22:34;;;;;;;46.17;19.80;;;-1.60;99.90;;;;;;4989509;28;20081;-48
2023/12/01 03:25:01;;;;;;;44.13;19.05;;;-1.70;99.90;;;;;;4990341;28;20158;-51
2023/12/01 03:27:27;;;;;;;42.60;18.33;;;-1.70;99.90;;;;;;4991904;28;20161;-52
2023/12/01 03:29:52;;;;;;;49.00;19.33;;;-1.70;99.90;;;;;;4988321;28;20054;-52
2023/12/01 03:32:21;;;;;;;42.75;18.77;;;-1.70;99.90;;;;;;4989528;28;20046;-51
2023/12/01 03:34:47;;;;;;;42.95;19.25;;;-1.70;99.90;;;;;;4988208;28;20133;-52
2023/12/01 03:37:13;;;;;;;40.08;18.92;;;-1.80;99.90;;;;;;4991917;28;20064;-50
2023/12/01 03:39:39;;;;;;;43.95;19.13;;;-1.80;99.90;;;;;;4993783;28;20057;-50
2023/12/01 03:42:04;;;;;;;44.03;18.75;;;-1.80;99.90;;;;;;4989604;28;20426;-51
2023/12/01 03:44:32;;;;;;;41.33;18.35;;;-1.80;99.90;;;;;;4966492;28;20056;-52
2023/12/01 03:46:58;;;;;;;44.95;19.92;;;-1.80;99.90;;;;;;4991381;28;20601;-49
2023/12/01 03:49:24;;;;;;;43.47;18.98;;;-1.90;99.90;;;;;;4997827;28;20046;-51
2023/12/01 03:51:52;;;;;;;46.50;19.13;;;-1.90;99.90;;;;;;4993656;28;20136;-48
2023/12/01 03:54:18;;;;;;;44.15;19.17;;;-1.90;99.90;;;;;;4992138;28;20046;-53
2023/12/01 03:56:44;;;;;;;41.92;18.77;;;-1.90;99.90;;;;;;4996528;28;20445;-48
2023/12/01 03:59:10;;;;;;;42.83;19.02;;;-1.90;99.90;;;;;;4994447;28;20046;-50
2023/12/01 04:01:39;;;;;;;42.83;18.40;;;-1.90;99.90;;;;;;4993363;28;20044;-49
2023/12/01 04:04:05;;;;;;;43.20;18.42;;;-2.00;99.90;;;;;;4995898;28;20045;-48
2023/12/01 04:06:36;;;;;;;38.42;17.40;;;-2.00;99.90;;;;;;4986442;28;20045;-48
2023/12/01 04:09:05;;;;;;;45.70;18.05;;;-2.00;99.90;;;;;;4989774;28;20113;-52
2023/12/01 04:11:32;;;;;;;43.63;18.15;;;-2.00;99.90;;;;;;4995056;28;20052;-53
2023/12/01 04:13:58;;;;;;;41.00;18.33;;;-2.10;99.90;;;;;;4994788;28;20042;-52
2023/12/01 04:16:26;;;;;;;42.63;17.90;;;-2.10;99.90;;;;;;4991039;28;20450;-52
2023/12/01 04:18:53;;;;;;;44.63;18.35;;;-2.10;99.90;;;;;;4989904;28;20057;-49
2023/12/01 04:21:19;;;;;;;42.03;18.33;;;-2.20;99.90;;;;;;4989741;28;20046;-51
2023/12/01 04:23:45;;;;;;;40.60;17.70;;;-2.10;99.90;;;;;;4993060;28;20039;-49
2023/12/01 04:26:12;;;;;;;44.30;18.48;;;-2.10;99.90;;;;;;4995611;28;20409;-49
2023/12/01 04:28:38;;;;;;;40.33;17.17;;;-2.20;99.90;;;;;;4976257;28;20276;-48
2023/12/01 04:31:05;;;;;;;40.63;18.10;;;-2.20;99.90;;;;;;4992317;28;20053;-49
2023/12/01 04:33:33;;;;;;;39.95;17.92;;;-2.30;99.90;;;;;;4993351;28;20046;-48
2023/12/01 04:35:59;;;;;;;43.17;18.88;;;-2.30;99.90;;;;;;4989521;28;20050;-48
2023/12/01 04:38:25;;;;;;;39.65;17.08;;;-2.30;99.90;;;;;;4990595;28;20046;-49
2023/12/01 04:40:54;;;;;;;40.60;17.65;;;-2.30;99.90;;;;;;4992899;28;20087;-52
2023/12/01 04:43:20;;;;;;;39.72;17.42;;;-2.40;99.90;;;;;;4992657;28;20158;-50
2023/12/01 04:45:45;;;;;;;41.50;17.90;;;-2.40;99.90;;;;;;4992511;28;20496;-48
2023/12/01 04:48:11;;;;;;;39.13;17.60;;;-2.40;99.90;;;;;;4993107;28;20065;-46
2023/12/01 04:50:46;;;;;;;42.53;18.20;;;-2.40;99.90;;;;;;4993088;28;20127;-48
2023/12/01 04:53:12;;;;;;;44.90;19.17;;;-2.50;99.90;;;;;;4992245;28;20080;-47
2023/12/01 04:55:38;;;;;;;42.03;18.05;;;-2.50;99.90;;;;;;4989742;28;20031;-51
2023/12/01 04:58:04;;;;;;;41.67;17.63;;;-2.50;99.90;;;;;;4991737;28;20052;-50
2023/12/01 05:00:30;;;;;;;40.53;18.15;;;-2.60;99.90;;;;;;4990712;28;20487;-52
2023/12/01 05:03:01;;;;;;;42.65;18.20;;;-2.60;99.90;;;;;;4994880;28;20449;-51
2023/12/01 05:05:31;;;;;;;41.95;17.90;;;-2.60;99.90;;;;;;4994804;28;20045;-49
2023/12/01 05:07:58;;;;;;;38.60;17.95;;;-2.60;99.90;;;;;;4997331;28;20030;-47
2023/12/01 05:10:26;;;;;;;40.90;17.50;;;-2.60;99.90;;;;;;4985942;28;20050;-51
2023/12/01 05:12:55;;;;;;;42.55;18.10;;;-2.60;99.90;;;;;;4996790;28;20072;-51
2023/12/01 05:15:24;;;;;;;41.13;18.77;;;-2.70;99.90;;;;;;4998936;28;20061;-51
2023/12/01 05:17:58;;;;;;;37.92;16.40;;;-2.80;99.90;;;;;;5001248;28;20050;-49
2023/12/01 05:20:25;;;;;;;39.47;16.58;;;-2.80;99.90;;;;;;4974786;28;20068;-51
2023/12/01 05:22:52;;;;;;;42.58;16.60;;;-2.80;99.90;;;;;;4989989;28;20309;-48
2023/12/01 05:25:20;;;;;;;38.60;16.45;;;-2.90;99.90;;;;;;4992670;28;20093;-48
2023/12/01 05:27:47;;;;;;;37.05;16.80;;;-2.90;99.90;;;;;;4998998;28;20041;-49
2023/12/01 05:30:14;;;;;;;43.67;18.08;;;-2.90;99.90;;;;;;4998668;28;20483;-47
2023/12/01 05:32:48;;;;;;;38.05;16.77;;;-3.00;99.90;;;;;;4998372;28;20100;-47
2023/12/01 05:35:15;;;;;;;41.45;16.67;;;-3.00;99.90;;;;;;4994375;28;20056;-48
2023/12/01 05:37:49;;;;;;;42.03;17.27;;;-3.00;99.90;;;;;;4996470;28;20246;-47
2023/12/01 05:40:37;;;;;;;37.03;17.58;;;-3.00;99.90;;;;;;4993663;28;20395;-48
2023/12/01 05:43:06;;;;;;;40.78;16.63;;;-3.00;99.90;;;;;;4974490;28;20065;-47
2023/12/01 05:45:35;;;;;;;40.53;17.63;;;-3.10;99.90;;;;;;4994247;28;20046;-52
2023/12/01 05:48:02;;;;;;;39.90;16.83;;;-3.10;99.90;;;;;;4994654;28;20410;-49
2023/12/01 05:50:33;;;;;;;37.90;16.67;;;-3.10;99.90;;;;;;4989232;28;20046;-50
2023/12/01 05:53:06;;;;;;;36.88;16.70;;;-3.20;99.90;;;;;;4996236;28;20168;-51
2023/12/01 05:55:33;;;;;;;33.22;15.80;;;-3.20;99.90;;;;;;4992647;28;20045;-47
2023/12/01 05:58:02;;;;;;;32.33;15.02;;;-3.20;99.90;;;;;;4993396;28;20046;-48
2023/12/01 06:00:29;;;;;;;31.75;14.85;;;-3.20;99.90;;;;;;4993821;28;20053;-51
2023/12/01 06:03:00;;;;;;;30.98;14.13;;;-3.20;99.90;;;;;;4990664;28;20050;-50
2023/12/01 06:05:27;;;;;;;33.25;15.15;;;-3.20;99.90;;;;;;4988920;28;20497;-47
2023/12/01 06:07:54;;;;;;;28.65;14.13;;;-3.20;99.90;;;;;;4988529;28;20457;-52
2023/12/01 06:10:21;;;;;;;28.67;13.93;;;-3.20;99.90;;;;;;4989448;28;20409;-47
2023/12/01 06:12:47;;;;;;;29.95;13.75;;;-3.20;99.90;;;;;;4985570;28;20093;-49
2023/12/01 06:15:16;;;;;;;28.45;14.02;;;-3.20;99.90;;;;;;4982374;28;20047;-49
2023/12/01 06:17:44;;;;;;;29.25;13.68;;;-3.30;99.90;;;;;;4988700;28;20057;-48
2023/12/01 06:20:17;;;;;;;29.75;13.88;;;-3.30;99.90;;;;;;4986284;28;20077;-50
2023/12/01 06:22:45;;;;;;;30.65;13.35;;;-3.30;99.90;;;;;;4987072;28;20137;-49
2023/12/01 06:25:11;;;;;;;29.50;13.38;;;-3.30;99.90;;;;;;4986554;28;20076;-49
2023/12/01 06:27:40;;;;;;;29.90;14.02;;;-3.30;99.90;;;;;;4983431;28;20490;-51
2023/12/01 06:30:11;;;;;;;29.00;13.40;;;-3.40;99.90;;;;;;4987599;28;20046;-52
2023/12/01 06:32:39;;;;;;;32.22;13.88;;;-3.40;99.90;;;;;;4981606;28;20077;-53
2023/12/01 06:35:07;;;;;;;26.90;13.73;;;-3.40;99.90;;;;;;4987462;28;20053;-51
2023/12/01 06:37:33;;;;;;;28.15;13.63;;;-3.40;99.90;;;;;;4970608;28;20514;-52
2023/12/01 06:39:58;;;;;;;28.30;13.68;;;-3.50;99.90;;;;;;4987303;28;20041;-48
2023/12/01 06:42:24;;;;;;;32.83;14.00;;;-3.50;99.90;;;;;;4987707;28;20042;-49
2023/12/01 06:44:50;;;;;;;31.90;14.80;;;-3.50;99.90;;;;;;4989101;28;20049;-48
2023/12/01 06:47:15;;;;;;;34.47;14.82;;;-3.50;99.90;;;;;;4995306;28;20129;-48
2023/12/01 06:49:41;;;;;;;35.10;15.77;;;-3.50;99.90;;;;;;4977609;28;20038;-53
2023/12/01 06:52:08;;;;;;;36.70;15.00;;;-3.60;99.90;;;;;;4987053;28;20049;-50
2023/12/01 06:54:33;;;;;;;42.10;16.67;;;-3.60;99.90;;;;;;4979973;28;20070;-51
2023/12/01 06:56:59;;;;;;;35.38;15.65;;;-3.60;99.90;;;;;;4994789;28;20584;-51
2023/12/01 06:59:25;;;;;;;37.28;16.17;;;-3.60;99.90;;;;;;4994487;28;20048;-52
2023/12/01 07:01:52;;;;;;;37.22;15.70;;;-3.60;99.90;;;;;;4990073;28;20554;-51
2023/12/01 07:04:19;;;;;;;41.30;17.38;;;-3.70;99.90;;;;;;4994604;28;20121;-51
2023/12/01 07:06:46;;;;;;;35.72;15.60;;;-3.70;99.90;;;;;;4995588;28;20100;-49
2023/12/01 07:09:17;;;;;;;40.20;16.50;;;-3.70;99.90;;;;;;4992894;28;20041;-53
2023/12/01 07:11:44;;;;;;;36.00;15.90;;;-3.80;99.90;;;;;;4994353;28;20064;-51
2023/12/01 07:14:12;;;;;;;35.55;16.02;;;-3.80;99.90;;;;;;4990010;28;20046;-50
2023/12/01 07:16:41;;;;;;;39.47;16.73;;;-3.80;99.90;;;;;;4981893;28;20550;-50
2023/12/01 07:19:07;;;;;;;38.72;16.58;;;-3.80;99.90;;;;;;4985705;28;20050;-48
2023/12/01 07:21:33;;;;;;;42.85;17.08;;;-3.90;99.90;;;;;;4978195;28;20056;-50
2023/12/01 07:24:02;;;;;;;39.70;17.05;;;-3.80;99.90;;;;;;4980588;28;20531;-48
2023/12/01 07:26:28;;;;;;;39.63;17.38;;;-3.90;99.90;;;;;;4979823;28;20280;-50
2023/12/01 07:28:53;;;;;;;40.28;17.33;;;-3.90;99.90;;;;;;4979228;28;20519;-49
2023/12/01 07:31:19;;;;;;;44.33;17.98;;;-3.90;99.90;;;;;;4976739;28;20137;-49
2023/12/01 07:33:45;;;;;;;41.60;17.02;;;-3.90;99.90;;;;;;4972332;28;20046;-50
2023/12/01 07:36:11;;;;;;;41.17;16.75;;;-3.90;99.90;;;;;;4954292;28;20103;-52
2023/12/01 07:38:37;;;;;;;40.90;16.67;;;-3.80;99.90;;;;;;4969511;28;20148;-49
2023/12/01 07:41:03;;;;;;;43.50;18.42;;;-3.90;99.90;;;;;;4972139;28;20052;-47
2023/12/01 07:43:29;;;;;;;41.72;16.30;;;-3.90;99.90;;;;;;4975112;28;20045;-49
2023/12/01 07:45:55;;;;;;;45.97;17.98;;;-3.90;99.90;;;;;;4974319;28;20052;-51
2023/12/01 07:48:21;;;;;;;44.53;18.25;;;-3.90;99.90;;;;;;4976903;28;20593;-50
2023/12/01 07:50:47;;;;;;;41.28;17.15;;;-3.80;99.90;;;;;;4982139;28;20049;-52
2023/12/01 07:53:13;;;;;;;47.72;18.92;;;-3.90;99.90;;;;;;4925147;28;20073;-48
2023/12/01 07:55:41;;;;;;;43.30;17.90;;;-3.90;99.90;;;;;;4976553;28;22063;-50
2023/12/01 07:58:07;;;;;;;42.80;17.33;;;-3.90;99.90;;;;;;4989632;28;20037;-50
2023/12/01 08:00:33;;;;;;;44.53;17.95;;;-3.90;99.90;;;;;;4989297;28;20100;-48
2023/12/01 08:02:59;;;;;;;43.78;18.55;;;-3.80;99.90;;;;;;4985124;28;20062;-49
2023/12/01 08:05:24;;;;;;;40.22;17.45;;;-3.90;99.90;;;;;;4990091;28;20346;-48
2023/12/01 08:07:51;;;;;;;46.53;17.80;;;-3.90;99.90;;;;;;4987821;28;20041;-49
2023/12/01 08:10:18;;;;;;;39.75;18.10;;;-3.80;99.90;;;;;;4990665;28;20045;-47
2023/12/01 08:12:49;;;;;;;46.17;18.20;;;-3.80;99.90;;;;;;4982353;28;20058;-49
2023/12/01 08:15:15;;;;;;;39.70;17.70;;;-3.80;99.90;;;;;;4983962;28;20466;-50
2023/12/01 08:17:43;;;;;;;48.45;18.63;;;-3.80;99.90;;;;;;4971751;28;20466;-51
2023/12/01 08:20:10;;;;;;;38.35;17.70;;;-3.80;99.90;;;;;;4989110;28;20068;-51
2023/12/01 08:22:42;;;;;;;45.90;17.70;;;-3.80;99.90;;;;;;4980400;28;20057;-51
2023/12/01 08:25:09;;;;;;;47.15;18.38;;;-3.80;99.90;;;;;;4975872;28;20132;-50
2023/12/01 08:27:36;;;;;;;42.55;17.80;;;-3.70;99.90;;;;;;4956679;28;20050;-52
2023/12/01 08:30:02;;;;;;;46.80;18.58;;;-3.70;99.90;;;;;;4979858;28;20065;-47
2023/12/01 08:32:29;;;;;;;46.10;17.50;;;-3.60;99.90;;;;;;4971856;28;20048;-50
2023/12/01 08:34:54;;;;;;;48.47;19.02;;;-3.60;99.90;;;;;;4976704;28;20042;-52
2023/12/01 08:37:20;;;;;;;45.75;18.88;;;-3.50;99.90;;;;;;4971234;28;20058;-49
2023/12/01 08:39:46;;;;;;;46.03;19.02;;;-3.50;99.90;;;;;;4955696;28;20085;-50
2023/12/01 08:42:12;;;;;;;44.65;18.77;;;-3.50;99.90;;;;;;4977136;28;20810;-49
2023/12/01 08:44:38;;;;;;;47.08;18.10;;;-3.50;99.90;;;;;;4976517;28;20605;-53
2023/12/01 08:47:04;;;;;;;46.60;19.67;;;-3.40;99.90;;;;;;4972512;28;20046;-48
2023/12/01 08:49:30;;;;;;;43.13;17.48;;;-3.40;99.90;;;;;;4979409;28;20133;-48
2023/12/01 08:51:56;;;;;;;41.33;18.00;;;-3.40;99.90;;;;;;4981973;28;20402;-49
2023/12/01 08:54:22;;;;;;;44.85;18.33;;;-3.30;99.90;;;;;;4967132;28;20092;-51
2023/12/01 08:56:48;;;;;;;48.35;17.92;;;-3.30;99.90;;;;;;4981514;28;20052;-50
2023/12/01 08:59:14;;;;;;;45.35;19.00;;;-3.20;99.90;;;;;;4986727;28;20491;-52
2023/12/01 09:01:40;;;;;;;42.38;17.80;;;-3.20;99.90;;;;;;4987347;28;20100;-50
2023/12/01 09:04:07;;;;;;;47.63;18.88;;;-3.10;99.90;;;;;;4984470;28;20034;-54
2023/12/01 09:06:33;;;;;;;45.88;19.15;;;-3.00;99.90;;;;;;4967592;28;20639;-52
2023/12/01 09:08:59;;;;;;;45.10;18.55;;;-3.00;99.90;;;;;;4978203;28;20399;-49
2023/12/01 09:11:25;;;;;;;49.50;18.85;;;-2.90;99.90;;;;;;4975336;28;20049;-50
2023/12/01 09:13:51;;;;;;;42.97;18.67;;;-2.90;99.90;;;;;;4973271;28;20522;-53
2023/12/01 09:16:17;;;;;;;45.83;18.30;;;-2.80;99.90;;;;;;4977512;28;20053;-51
2023/12/01 09:18:43;;;;;;;45.55;19.90;;;-2.70;99.90;;;;;;4975677;28;20484;-51
2023/12/01 09:21:09;;;;;;;42.42;18.20;;;-2.70;99.90;;;;;;4960218;28;20063;-53
2023/12/01 09:23:39;;;;;;;40.83;17.27;;;-2.60;99.90;;;;;;4972720;28;20704;-52
2023/12/01 09:26:06;;;;;;;40.72;18.77;;;-2.50;99.90;;;;;;4973818;28;20586;-50
2023/12/01 09:28:36;;;;;;;42.85;18.42;;;-2.40;99.90;;;;;;4976851;28;20049;-48
2023/12/01 09:31:04;;;;;;;39.80;17.65;;;-2.40;99.90;;;;;;4974689;28;20045;-49
2023/12/01 09:33:30;;;;;;;38.88;17.38;;;-2.30;99.90;;;;;;4975973;28;20042;-49
2023/12/01 09:35:56;;;;;;;40.80;17.88;;;-2.20;99.90;;;;;;4976514;28;20291;-50
2023/12/01 09:38:22;;;;;;;37.05;17.60;;;-2.10;99.90;;;;;;4974594;28;20829;-50
2023/12/01 09:40:48;;;;;;;36.50;16.90;;;-2.00;99.90;;;;;;4977276;28;20095;-48
2023/12/01 09:43:18;;;;;;;36.92;17.00;;;-1.90;99.90;;;;;;4976714;28;20050;-50
2023/12/01 09:45:44;;;;;;;39.28;17.42;;;-1.80;99.90;;;;;;4974725;28;20043;-49
2023/12/01 09:48:13;;;;;;;36.72;18.13;;;-1.70;99.90;;;;;;4971592;28;20049;-51
2023/12/01 09:50:39;;;;;;;38.60;17.45;;;-1.60;99.90;;;;;;4976725;28;20515;-51
2023/12/01 09:53:05;;;;;;;34.13;16.13;;;-1.50;99.90;;;;;;4983098;28;20073;-49
2023/12/01 09:55:33;;;;;;;35.85;16.98;;;-1.40;99.90;;;;;;4977579;28;20249;-49
2023/12/01 09:57:59;;;;;;;40.08;17.30;;;-1.30;99.90;;;;;;4984347;28;20042;-50
2023/12/01 10:00:25;;;;;;;36.60;17.02;;;-1.20;99.90;;;;;;4986236;28;20046;-51
2023/12/01 10:02:51;;;;;;;34.97;15.52;;;-1.00;99.90;;;;;;4984325;28;20536;-49
2023/12/01 10:05:20;;;;;;;33.25;16.50;;;-0.90;99.90;;;;;;4983139;28;20053;-48
2023/12/01 10:07:48;;;;;;;36.42;17.40;;;-0.80;99.90;;;;;;4981932;28;20177;-50
2023/12/01 10:10:22;;;;;;;39.05;17.52;;;-0.70;99.90;;;;;;4983225;28;20070;-47
2023/12/01 10:13:04;;;;;;;36.67;17.45;;;-0.60;99.90;;;;;;4986834;28;20041;-47
2023/12/01 10:15:40;;;;;;;36.27;17.37;;;-0.50;99.90;;;;;;4972632;28;20050;-49
2023/12/01 10:18:19;;;;;;;35.63;17.92;;;-0.40;99.90;;;;;;4989221;28;20042;-51
2023/12/01 10:21:02;;;;;;;34.67;17.10;;;-0.30;99.90;;;;;;4983342;28;20390;-51
2023/12/01 10:23:29;;;;;;;37.20;18.10;;;-0.20;99.90;;;;;;4970294;28;20053;-49
2023/12/01 10:25:56;;;;;;;33.47;17.35;;;-0.20;99.90;;;;;;4984320;28;20046;-49
2023/12/01 10:28:37;;;;;;;35.00;17.08;;;-0.10;99.90;;;;;;4985473;28;20058;-48
2023/12/01 10:31:04;;;;;;;32.58;16.40;;;0.00;99.90;;;;;;4983511;28;20553;-48
2023/12/01 10:33:29;;;;;;;29.95;15.90;;;0.10;99.90;;;;;;4980145;28;20061;-52
2023/12/01 10:36:09;;;;;;;29.65;15.63;;;0.30;99.90;;;;;;4983093;28;20045;-49
2023/12/01 10:38:39;;;;;;;28.20;14.98;;;0.40;99.90;;;;;;4987599;28;20056;-48
2023/12/01 10:41:05;;;;;;;34.40;16.75;;;0.50;99.90;;;;;;4986115;28;20041;-48
2023/12/01 10:43:32;;;;;;;29.83;15.98;;;0.60;99.90;;;;;;4986694;28;20044;-48
2023/12/01 10:46:05;;;;;;;31.95;15.82;;;0.70;99.90;;;;;;4993833;28;20034;-50
2023/12/01 10:48:33;;;;;;;29.23;15.55;;;0.90;99.90;;;;;;4986850;28;20141;-48
2023/12/01 10:51:03;;;;;;;27.23;15.02;;;1.00;99.90;;;;;;4983460;28;20038;-48
2023/12/01 10:53:29;;;;;;;30.17;16.05;;;1.10;99.90;;;;;;4970045;28;20138;-48
2023/12/01 10:56:00;;;;;;;33.75;16.67;;;1.10;99.90;;;;;;4981588;28;20413;-48
2023/12/01 10:58:27;;;;;;;29.92;15.68;;;1.20;99.90;;;;;;4977252;28;20053;-50
2023/12/01 11:00:57;;;;;;;28.88;15.02;;;1.30;99.90;;;;;;4982037;28;20097;-51
2023/12/01 11:03:28;;;;;;;27.27;15.27;;;1.30;99.90;;;;;;4983270;28;20042;-53
2023/12/01 11:06:01;;;;;;;26.25;14.20;;;1.40;99.90;;;;;;4978638;28;20051;-52
2023/12/01 11:08:38;;;;;;;30.00;15.82;;;1.40;99.90;;;;;;4983648;28;20685;-52
2023/12/01 11:11:04;;;;;;;30.08;15.73;;;1.50;99.90;;;;;;4978004;28;20069;-52
2023/12/01 11:13:41;;;;;;;27.02;14.48;;;1.50;99.90;;;;;;4980424;28;20049;-49
2023/12/01 11:16:08;;;;;;;25.90;14.65;;;1.40;99.90;;;;;;4962891;28;20142;-52
2023/12/01 11:18:34;;;;;;;27.45;14.82;;;1.40;99.90;;;;;;4982883;28;20054;-51
2023/12/01 11:21:00;;;;;;;31.90;15.85;;;1.30;99.90;;;;;;4954378;28;20498;-49
2023/12/01 11:23:28;;;;;;;26.02;14.95;;;1.20;99.90;;;;;;4970978;28;20054;-49
2023/12/01 11:26:05;;;;;;;31.20;15.55;;;1.30;99.90;;;;;;4938434;28;20120;-50
2023/12/01 11:33:50;;;;;;;29.38;15.40;;;1.20;99.90;;;;;;4954826;28;20239;-49
2023/12/01 11:36:21;;;;;;;28.70;15.68;;;1.20;99.90;;;;;;4960974;28;20053;-50
2023/12/01 11:39:18;;;;;;;27.95;14.55;;;1.20;99.90;;;;;;4960860;28;20047;-47
2023/12/01 11:41:44;;;;;;;28.65;14.63;;;1.20;99.90;;;;;;4954379;28;20866;-49
2023/12/01 11:44:24;;;;;;;28.00;14.15;;;1.20;99.90;;;;;;4955107;28;20054;-52
2023/12/01 11:46:55;;;;;;;24.70;13.82;;;1.20;99.90;;;;;;4959115;28;20043;-52
2023/12/01 11:49:23;;;;;;;30.13;15.23;;;1.10;99.90;;;;;;4957288;28;20042;-48
2023/12/01 11:51:49;;;;;;;32.10;15.57;;;1.10;99.90;;;;;;4956099;28;20129;-52
2023/12/01 11:54:15;;;;;;;27.90;14.65;;;1.10;99.90;;;;;;4928450;28;20137;-51
2023/12/01 11:56:47;;;;;;;30.08;15.65;;;1.10;99.90;;;;;;4941649;28;20495;-50
2023/12/01 11:59:13;;;;;;;29.17;14.37;;;1.10;99.90;;;;;;4955660;28;20069;-48
2023/12/01 12:01:39;;;;;;;26.02;14.27;;;1.10;99.90;;;;;;4954796;28;20768;-47
2023/12/01 12:04:09;;;;;;;28.75;15.70;;;1.10;99.90;;;;;;4958275;28;20592;-50
2023/12/01 12:06:35;;;;;;;26.38;14.07;;;1.10;99.90;;;;;;4954502;28;20042;-47
2023/12/01 12:09:06;;;;;;;28.73;14.27;;;1.10;99.90;;;;;;4960287;28;20062;-49
2023/12/01 12:11:35;;;;;;;27.65;15.02;;;1.10;99.90;;;;;;4956969;28;20061;-50
2023/12/01 12:14:04;;;;;;;25.80;14.98;;;0.90;99.90;;;;;;4961315;28;21728;-47
2023/12/01 12:16:30;;;;;;;28.20;15.57;;;0.90;99.90;;;;;;4958171;28;22410;-49
2023/12/01 12:18:59;;;;;;;26.77;14.48;;;0.90;99.90;;;;;;4959692;28;20119;-47
2023/12/01 12:21:27;;;;;;;27.10;14.68;;;0.80;99.90;;;;;;4952531;28;20050;-49
2023/12/01 12:23:54;;;;;;;24.02;13.40;;;0.80;99.90;;;;;;4961078;28;20124;-50
2023/12/01 12:26:22;;;;;;;27.02;14.70;;;0.80;99.90;;;;;;4961956;28;20132;-50
2023/12/01 12:29:00;;;;;;;27.92;15.45;;;0.80;99.90;;;;;;4975650;28;20112;-52
2023/12/01 12:31:29;;;;;;;26.55;14.52;;;0.80;99.90;;;;;;4956127;28;20449;-50
2023/12/01 12:33:58;;;;;;;29.17;15.32;;;0.80;99.90;;;;;;4972902;28;20158;-51
2023/12/01 12:36:30;;;;;;;27.88;14.77;;;0.70;99.90;;;;;;4977001;28;20598;-50